Time;durP1;ratioP1;P1;durP2;ratioP2;P2;SDS_P1;SDS_P2;PMS_P1;PMS_P2;Temp;Humidity;BMP_temperature;BMP_pressure;BME280_temperature;BME280_humidity;BME280_pressure;Samples;Min_cycle;Max_cycle;Signal;HPM_P1;HPM_P2
2022/10/12 00:01:46;;;;;;;10.67;3.60;;;6.80;89.50;;;;;;4997386;28;20178;-89
2022/10/12 00:04:11;;;;;;;7.63;3.67;;;6.80;89.50;;;;;;4997004;28;20204;-90
2022/10/12 00:06:37;;;;;;;8.80;3.20;;;6.90;89.50;;;;;;4997013;28;20201;-89
2022/10/12 00:09:02;;;;;;;4.37;3.20;;;6.90;89.50;;;;;;5014460;28;20169;-90
2022/10/12 00:11:28;;;;;;;4.00;3.20;;;6.90;89.50;;;;;;4996913;28;20315;-89
2022/10/12 00:13:55;;;;;;;4.77;3.70;;;7.00;89.50;;;;;;5014405;28;20564;-90
2022/10/12 00:16:22;;;;;;;4.93;4.17;;;6.90;89.50;;;;;;4997446;28;20698;-90
2022/10/12 00:18:55;;;;;;;4.70;4.03;;;6.90;89.50;;;;;;4996816;28;20208;-90
2022/10/12 00:21:22;;;;;;;4.87;4.20;;;6.80;89.60;;;;;;4997208;28;20265;-90
2022/10/12 00:23:49;;;;;;;4.63;4.23;;;6.90;89.80;;;;;;4996595;28;20255;-90
2022/10/12 00:26:17;;;;;;;6.57;4.30;;;6.90;89.90;;;;;;4996618;28;20733;-90
2022/10/12 00:28:43;;;;;;;7.80;4.57;;;7.00;89.90;;;;;;4996671;28;20177;-90
2022/10/12 00:31:18;;;;;;;5.20;4.37;;;7.00;90.00;;;;;;4996689;28;20698;-90
2022/10/12 00:33:44;;;;;;;5.03;4.50;;;7.00;90.00;;;;;;4996546;28;20259;-90
2022/10/12 00:36:16;;;;;;;8.93;5.47;;;7.20;90.10;;;;;;4996464;28;20268;-90
2022/10/12 00:38:42;;;;;;;8.60;4.03;;;7.30;90.10;;;;;;4996432;28;20173;-90
2022/10/12 00:41:08;;;;;;;11.93;4.23;;;7.30;90.10;;;;;;4996525;28;20184;-90
2022/10/12 00:43:40;;;;;;;5.77;4.07;;;7.30;90.10;;;;;;4997240;28;20254;-90
2022/10/12 00:46:29;;;;;;;10.50;4.40;;;7.40;90.10;;;;;;5013969;28;20240;-90
2022/10/12 00:49:03;;;;;;;6.17;5.00;;;7.40;90.10;;;;;;4997306;28;20188;-90
2022/10/12 00:51:29;;;;;;;8.10;4.87;;;7.50;90.20;;;;;;4995854;28;20265;-91
2022/10/12 00:54:03;;;;;;;8.07;4.83;;;7.50;90.20;;;;;;4996970;28;20280;-91
2022/10/12 00:56:32;;;;;;;9.30;4.50;;;7.50;90.40;;;;;;4996329;28;20175;-90
2022/10/12 00:59:03;;;;;;;7.83;5.27;;;7.60;90.40;;;;;;4996125;28;20178;-91
2022/10/12 01:01:33;;;;;;;6.23;4.37;;;7.60;90.40;;;;;;4996250;28;20201;-90
2022/10/12 01:03:59;;;;;;;6.80;4.90;;;7.60;90.40;;;;;;4996193;28;20201;-90
2022/10/12 01:06:24;;;;;;;7.00;4.10;;;7.60;90.40;;;;;;4996318;28;20208;-91
2022/10/12 01:08:50;;;;;;;10.43;4.80;;;7.60;90.40;;;;;;4996451;28;20173;-91
2022/10/12 01:11:16;;;;;;;8.90;5.50;;;7.60;90.40;;;;;;4996567;28;20203;-91
2022/10/12 01:13:42;;;;;;;10.43;5.47;;;7.70;90.80;;;;;;4996447;28;20673;-91
2022/10/12 01:16:18;;;;;;;14.40;6.10;;;7.80;91.00;;;;;;4997244;28;20531;-91
2022/10/12 01:19:08;;;;;;;8.27;5.90;;;7.80;91.10;;;;;;4996504;28;20173;-91
2022/10/12 01:21:41;;;;;;;12.03;7.00;;;7.90;91.40;;;;;;4997579;28;20232;-91
2022/10/12 01:24:12;;;;;;;7.17;5.47;;;7.90;91.40;;;;;;4996258;28;20198;-91
2022/10/12 01:26:59;;;;;;;13.47;5.70;;;7.90;91.50;;;;;;4996164;28;20197;-91
2022/10/12 01:29:33;;;;;;;9.87;5.47;;;8.00;91.50;;;;;;4996269;28;20212;-91
2022/10/12 01:32:29;;;;;;;11.10;5.90;;;8.00;91.50;;;;;;4996129;28;20665;-91
2022/10/12 01:35:27;;;;;;;13.40;5.63;;;8.00;91.50;;;;;;4996230;28;20224;-90
2022/10/12 01:38:05;;;;;;;11.17;5.60;;;8.10;91.50;;;;;;4986066;28;20191;-91
2022/10/12 01:40:34;;;;;;;8.13;5.47;;;8.10;91.50;;;;;;4997013;28;20161;-91
2022/10/12 01:43:01;;;;;;;12.13;5.50;;;8.10;91.50;;;;;;4996085;28;20181;-91
2022/10/12 01:45:26;;;;;;;13.13;5.67;;;8.10;91.50;;;;;;4996764;28;20205;-91
2022/10/12 01:47:54;;;;;;;15.87;6.20;;;8.10;91.60;;;;;;4996129;28;20228;-91
2022/10/12 01:50:23;;;;;;;20.50;7.70;;;8.10;91.60;;;;;;4996001;28;20195;-91
2022/10/12 01:53:17;;;;;;;14.07;7.40;;;8.10;91.80;;;;;;4995852;28;20632;-91
2022/10/12 01:55:56;;;;;;;13.20;6.83;;;8.20;92.00;;;;;;4996480;28;20169;-90
2022/10/12 01:58:24;;;;;;;23.20;6.87;;;8.20;92.20;;;;;;4996614;28;20184;-91
2022/10/12 02:01:19;;;;;;;13.73;6.43;;;8.20;92.30;;;;;;4995785;28;20169;-91
2022/10/12 02:03:48;;;;;;;12.70;6.53;;;8.20;92.40;;;;;;4961889;28;20201;-91
2022/10/12 02:06:18;;;;;;;13.27;6.50;;;8.30;92.40;;;;;;4999367;28;20204;-90
2022/10/12 02:08:55;;;;;;;15.57;6.80;;;8.30;92.50;;;;;;5000405;28;20608;-91
2022/10/12 02:11:23;;;;;;;16.50;7.10;;;8.30;92.60;;;;;;4999447;28;20212;-91
2022/10/12 02:13:58;;;;;;;16.13;7.03;;;8.30;92.60;;;;;;4999233;28;20225;-91
2022/10/12 02:16:31;;;;;;;15.17;7.00;;;8.40;92.80;;;;;;4999241;28;20179;-91
2022/10/12 02:18:58;;;;;;;20.03;7.60;;;8.50;92.90;;;;;;4999894;28;20201;-91
2022/10/12 02:21:29;;;;;;;19.00;7.67;;;8.50;93.00;;;;;;4999055;28;20173;-91
2022/10/12 02:23:57;;;;;;;15.83;7.13;;;8.60;93.00;;;;;;4999516;28;20194;-91
2022/10/12 02:26:23;;;;;;;15.23;7.40;;;8.60;93.10;;;;;;4998958;28;20288;-91
2022/10/12 02:28:49;;;;;;;18.20;8.27;;;8.60;93.20;;;;;;4999925;28;20181;-91
2022/10/12 02:31:28;;;;;;;16.80;7.50;;;8.60;93.30;;;;;;5016897;28;20173;-91
2022/10/12 02:33:59;;;;;;;13.30;7.00;;;8.60;93.30;;;;;;4998946;28;20213;-91
2022/10/12 02:36:33;;;;;;;18.67;7.37;;;8.70;93.40;;;;;;4998916;28;20189;-91
2022/10/12 02:39:08;;;;;;;17.67;7.67;;;8.60;93.30;;;;;;4998957;28;20178;-91
2022/10/12 02:41:39;;;;;;;15.50;8.00;;;8.70;93.40;;;;;;4998936;28;20173;-91
2022/10/12 02:44:09;;;;;;;21.50;8.13;;;8.70;93.40;;;;;;4998820;28;20216;-91
2022/10/12 02:46:37;;;;;;;20.07;7.97;;;8.70;93.50;;;;;;4998752;28;20204;-91
2022/10/12 02:49:04;;;;;;;18.93;8.17;;;8.70;93.50;;;;;;4998562;28;20180;-91
2022/10/12 02:51:31;;;;;;;18.30;9.13;;;8.70;93.50;;;;;;4998548;28;20726;-91
2022/10/12 02:53:57;;;;;;;26.87;7.87;;;8.70;93.50;;;;;;4998434;28;20203;-91
2022/10/12 02:56:23;;;;;;;15.73;7.43;;;8.70;93.50;;;;;;4998848;28;20177;-91
2022/10/12 02:58:48;;;;;;;25.27;8.30;;;8.70;93.50;;;;;;4998573;28;20176;-91
2022/10/12 03:01:17;;;;;;;15.77;6.93;;;8.70;93.60;;;;;;4998432;28;20647;-91
2022/10/12 03:03:44;;;;;;;21.03;7.60;;;8.70;93.60;;;;;;5016105;28;20236;-91
2022/10/12 03:06:10;;;;;;;16.27;6.83;;;8.70;93.60;;;;;;4998379;28;20232;-91
2022/10/12 03:08:35;;;;;;;16.87;7.33;;;8.80;93.60;;;;;;4999144;28;20177;-91
2022/10/12 03:11:05;;;;;;;27.13;7.27;;;8.80;93.60;;;;;;4998332;28;20177;-91
2022/10/12 03:13:31;;;;;;;14.73;6.50;;;8.80;93.60;;;;;;4998642;28;20201;-91
2022/10/12 03:16:05;;;;;;;17.70;7.70;;;8.80;93.70;;;;;;4998038;28;20181;-91
2022/10/12 03:18:31;;;;;;;11.73;6.33;;;8.80;93.60;;;;;;4998412;28;20260;-91
2022/10/12 03:20:57;;;;;;;16.47;7.20;;;8.80;93.60;;;;;;4998118;28;20281;-91
2022/10/12 03:23:23;;;;;;;13.53;6.40;;;8.80;93.60;;;;;;4998240;28;20197;-91
2022/10/12 03:25:48;;;;;;;13.73;7.17;;;8.90;93.60;;;;;;4997827;28;20209;-91
2022/10/12 03:28:14;;;;;;;14.93;6.40;;;8.90;93.60;;;;;;4998431;28;20639;-91
2022/10/12 03:30:39;;;;;;;15.40;6.20;;;8.80;93.50;;;;;;4998134;28;20173;-91
2022/10/12 03:33:05;;;;;;;13.87;6.50;;;8.80;93.50;;;;;;4998116;28;20679;-91
2022/10/12 03:35:30;;;;;;;13.73;7.07;;;8.70;93.40;;;;;;4998439;28;20178;-91
2022/10/12 03:37:56;;;;;;;16.77;6.07;;;8.60;93.40;;;;;;4998115;28;20263;-91
2022/10/12 03:40:21;;;;;;;16.57;5.90;;;8.60;93.40;;;;;;4997854;28;20260;-91
2022/10/12 03:42:47;;;;;;;11.73;5.67;;;8.50;93.40;;;;;;4997784;28;20276;-91
2022/10/12 03:45:12;;;;;;;14.13;5.33;;;8.50;93.30;;;;;;4997630;28;20173;-91
2022/10/12 03:47:38;;;;;;;15.13;6.10;;;8.50;93.40;;;;;;4997720;28;20173;-91
2022/10/12 03:50:04;;;;;;;11.53;5.60;;;8.40;93.20;;;;;;4997715;28;20205;-91
2022/10/12 03:52:30;;;;;;;14.17;5.67;;;8.40;93.20;;;;;;4997908;28;20666;-91
2022/10/12 03:54:56;;;;;;;12.60;5.37;;;8.30;93.20;;;;;;4997691;28;20197;-91
2022/10/12 03:57:21;;;;;;;13.60;5.27;;;8.30;93.20;;;;;;4998277;28;20185;-91
2022/10/12 03:59:47;;;;;;;14.80;5.60;;;8.30;93.10;;;;;;4997480;28;20177;-91
2022/10/12 04:02:12;;;;;;;12.17;5.47;;;8.20;93.10;;;;;;4997346;28;20200;-91
2022/10/12 04:04:38;;;;;;;8.67;4.60;;;8.20;93.10;;;;;;4997280;28;20575;-91
2022/10/12 04:07:03;;;;;;;12.40;4.60;;;8.10;93.00;;;;;;4997421;28;20201;-91
2022/10/12 04:09:29;;;;;;;12.53;4.90;;;8.10;92.90;;;;;;4997182;28;20165;-91
2022/10/12 04:11:54;;;;;;;11.63;4.93;;;8.00;92.90;;;;;;4997233;28;20264;-91
2022/10/12 04:14:20;;;;;;;12.30;4.70;;;8.00;92.90;;;;;;4997056;28;20284;-91
2022/10/12 04:16:45;;;;;;;9.90;4.57;;;8.00;92.90;;;;;;4996988;28;20284;-91
2022/10/12 04:19:12;;;;;;;9.03;4.63;;;8.00;92.80;;;;;;4997073;28;20187;-91
2022/10/12 04:21:38;;;;;;;8.60;4.40;;;7.90;92.80;;;;;;5014850;28;20173;-91
2022/10/12 04:24:04;;;;;;;10.73;4.33;;;7.90;92.80;;;;;;4996781;28;20751;-91
2022/10/12 04:26:29;;;;;;;11.20;4.70;;;7.80;92.70;;;;;;4996185;28;20204;-91
2022/10/12 04:28:55;;;;;;;10.37;4.57;;;7.80;92.60;;;;;;4997662;28;20184;-90
2022/10/12 04:31:20;;;;;;;12.73;4.70;;;7.70;92.60;;;;;;4996668;28;20177;-91
2022/10/12 04:33:46;;;;;;;11.13;4.70;;;7.70;92.50;;;;;;4996772;28;20221;-91
2022/10/12 04:36:12;;;;;;;16.33;5.23;;;7.60;92.50;;;;;;4997144;28;20181;-91
2022/10/12 04:38:38;;;;;;;10.03;4.80;;;7.60;92.50;;;;;;5014398;28;20648;-91
2022/10/12 04:41:03;;;;;;;16.53;5.27;;;7.70;92.50;;;;;;4996641;28;20191;-91
2022/10/12 04:43:29;;;;;;;14.83;5.27;;;7.70;92.40;;;;;;4996601;28;20200;-91
2022/10/12 04:45:56;;;;;;;16.50;5.50;;;7.60;92.40;;;;;;4997344;28;20228;-91
2022/10/12 04:48:22;;;;;;;9.30;4.80;;;7.60;92.40;;;;;;4996696;28;20690;-91
2022/10/12 04:50:48;;;;;;;13.97;4.90;;;7.60;92.40;;;;;;4996371;28;20186;-91
2022/10/12 04:53:13;;;;;;;16.43;5.93;;;7.70;92.40;;;;;;4996296;28;20742;-91
2022/10/12 04:55:39;;;;;;;15.27;5.13;;;7.60;92.30;;;;;;4996329;28;20662;-91
2022/10/12 04:58:04;;;;;;;18.10;4.40;;;7.50;92.20;;;;;;4996583;28;20185;-90
2022/10/12 05:00:30;;;;;;;9.83;4.63;;;7.50;92.20;;;;;;4996367;28;20189;-91
2022/10/12 05:02:55;;;;;;;9.23;4.60;;;7.50;92.20;;;;;;4996232;28;20188;-91
2022/10/12 05:05:21;;;;;;;13.80;4.43;;;7.40;92.10;;;;;;4996081;28;20180;-91
2022/10/12 05:07:46;;;;;;;18.40;4.93;;;7.30;92.10;;;;;;4996088;28;20181;-91
2022/10/12 05:10:12;;;;;;;48.23;5.27;;;7.30;92.20;;;;;;4996480;28;20169;-90
2022/10/12 05:12:37;;;;;;;7.97;4.10;;;7.30;92.10;;;;;;4996866;28;20184;-91
2022/10/12 05:15:03;;;;;;;7.90;4.67;;;7.30;92.20;;;;;;4996074;28;20201;-90
2022/10/12 05:17:29;;;;;;;7.07;3.90;;;7.20;92.10;;;;;;4995929;28;20173;-90
2022/10/12 05:19:54;;;;;;;10.37;5.17;;;7.30;92.10;;;;;;4996090;28;20231;-91
2022/10/12 05:22:20;;;;;;;13.03;5.80;;;7.20;92.10;;;;;;5013501;28;20161;-90
2022/10/12 05:24:45;;;;;;;15.43;4.90;;;7.20;92.00;;;;;;4995968;28;20205;-91
2022/10/12 05:27:11;;;;;;;11.33;4.80;;;7.20;92.10;;;;;;5014015;28;20256;-91
2022/10/12 05:29:36;;;;;;;14.73;5.13;;;7.20;92.00;;;;;;4995989;28;20547;-90
2022/10/12 05:32:02;;;;;;;14.47;5.23;;;7.20;92.10;;;;;;4996030;28;20177;-91
2022/10/12 05:34:27;;;;;;;17.57;5.50;;;7.30;92.20;;;;;;4995692;28;20208;-91
2022/10/12 05:36:53;;;;;;;18.00;5.63;;;7.30;92.20;;;;;;4996969;28;20209;-91
2022/10/12 05:39:18;;;;;;;17.80;5.90;;;7.40;92.30;;;;;;4998779;28;20173;-90
2022/10/12 05:41:44;;;;;;;9.33;4.77;;;7.40;92.30;;;;;;5000004;28;20180;-91
2022/10/12 05:44:09;;;;;;;20.53;6.33;;;7.30;92.30;;;;;;4999756;28;20599;-90
2022/10/12 05:46:35;;;;;;;21.30;5.30;;;7.30;92.40;;;;;;4999712;28;20235;-90
2022/10/12 05:49:01;;;;;;;18.27;6.07;;;7.30;92.40;;;;;;5017515;28;20259;-89
2022/10/12 05:51:26;;;;;;;13.80;5.40;;;7.30;92.40;;;;;;4999620;28;20177;-90
2022/10/12 05:53:52;;;;;;;15.20;5.90;;;7.30;92.40;;;;;;4999762;28;20200;-89
2022/10/12 05:56:18;;;;;;;10.37;4.80;;;7.20;92.40;;;;;;4999424;28;20187;-90
2022/10/12 05:58:43;;;;;;;19.27;5.57;;;7.30;92.50;;;;;;5017259;28;20257;-89
2022/10/12 06:01:11;;;;;;;13.07;5.37;;;7.20;92.40;;;;;;4999323;28;20209;-90
2022/10/12 06:03:37;;;;;;;17.53;5.57;;;7.30;92.60;;;;;;5016801;28;20288;-89
2022/10/12 06:06:05;;;;;;;16.83;5.83;;;7.30;92.50;;;;;;4999243;28;20679;-90
2022/10/12 06:08:32;;;;;;;17.87;7.13;;;7.20;92.50;;;;;;4999324;28;20178;-90
2022/10/12 06:10:57;;;;;;;16.10;5.60;;;7.20;92.50;;;;;;4999369;28;20185;-90
2022/10/12 06:13:24;;;;;;;11.87;4.90;;;7.20;92.50;;;;;;4999117;28;20194;-90
2022/10/12 06:15:50;;;;;;;17.83;5.20;;;7.30;92.60;;;;;;4999179;28;20553;-91
2022/10/12 06:18:16;;;;;;;14.97;5.47;;;7.20;92.60;;;;;;4999164;28;20178;-90
2022/10/12 06:20:50;;;;;;;11.37;5.37;;;7.20;92.50;;;;;;4999081;28;20184;-90
2022/10/12 06:23:16;;;;;;;11.13;5.03;;;7.30;92.60;;;;;;4998962;28;20193;-90
2022/10/12 06:25:41;;;;;;;15.13;5.57;;;7.30;92.60;;;;;;4998885;28;20212;-90
2022/10/12 06:28:07;;;;;;;11.93;5.07;;;7.30;92.60;;;;;;5016525;28;20162;-91
2022/10/12 06:30:32;;;;;;;14.83;5.07;;;7.30;92.70;;;;;;4999752;28;20264;-91
2022/10/12 06:32:58;;;;;;;19.23;6.27;;;7.30;92.60;;;;;;5016523;28;20174;-91
2022/10/12 06:35:23;;;;;;;17.33;6.17;;;7.30;92.70;;;;;;4998769;28;20240;-91
2022/10/12 06:37:50;;;;;;;17.00;5.77;;;7.30;92.70;;;;;;4999569;28;20169;-90
2022/10/12 06:40:17;;;;;;;11.67;5.60;;;7.40;92.80;;;;;;4998574;28;20550;-90
2022/10/12 06:42:43;;;;;;;13.57;6.10;;;7.40;92.80;;;;;;4998763;28;20178;-91
2022/10/12 06:45:09;;;;;;;13.17;5.37;;;7.50;92.90;;;;;;4998875;28;20729;-91
2022/10/12 06:47:34;;;;;;;19.30;6.13;;;7.50;92.90;;;;;;4998657;28;20263;-91
2022/10/12 06:50:00;;;;;;;20.67;7.23;;;7.50;92.90;;;;;;4997733;28;20173;-91
2022/10/12 06:52:26;;;;;;;22.37;6.50;;;7.50;92.90;;;;;;4998663;28;20177;-91
2022/10/12 06:54:51;;;;;;;20.27;6.40;;;7.50;93.00;;;;;;5016055;28;20201;-91
2022/10/12 06:57:17;;;;;;;22.60;6.87;;;7.60;93.00;;;;;;4998464;28;20178;-91
2022/10/12 06:59:42;;;;;;;26.83;6.77;;;7.60;93.10;;;;;;5016040;28;20213;-91
2022/10/12 07:02:12;;;;;;;23.53;7.10;;;7.60;93.10;;;;;;5016225;28;20199;-90
2022/10/12 07:04:37;;;;;;;19.23;7.03;;;7.70;93.20;;;;;;4998433;28;20194;-91
2022/10/12 07:07:03;;;;;;;19.90;6.80;;;7.70;93.20;;;;;;4998219;28;20276;-91
2022/10/12 07:09:29;;;;;;;18.87;6.57;;;7.70;93.20;;;;;;4998557;28;20178;-90
2022/10/12 07:11:54;;;;;;;20.83;7.03;;;7.80;93.30;;;;;;4998283;28;20192;-90
2022/10/12 07:14:20;;;;;;;20.97;6.50;;;7.80;93.40;;;;;;4998033;28;20194;-91
2022/10/12 07:16:46;;;;;;;18.53;7.47;;;7.90;93.40;;;;;;4998083;28;20187;-91
2022/10/12 07:19:12;;;;;;;26.17;7.53;;;7.90;93.50;;;;;;4997973;28;20663;-90
2022/10/12 07:21:37;;;;;;;25.90;8.77;;;8.00;93.60;;;;;;4997942;28;20596;-90
2022/10/12 07:24:03;;;;;;;18.30;7.43;;;8.10;93.70;;;;;;4997815;28;20255;-90
2022/10/12 07:26:29;;;;;;;21.27;7.97;;;8.10;93.80;;;;;;4997743;28;20236;-90
2022/10/12 07:28:54;;;;;;;21.87;7.87;;;8.20;93.80;;;;;;4997807;28;20178;-90
2022/10/12 07:31:20;;;;;;;21.03;7.17;;;8.30;93.90;;;;;;4997708;28;20229;-90
2022/10/12 07:33:45;;;;;;;20.30;7.40;;;8.30;93.80;;;;;;4997528;28;20264;-90
2022/10/12 07:36:11;;;;;;;28.60;7.37;;;8.30;93.80;;;;;;4997618;28;20177;-90
2022/10/12 07:38:36;;;;;;;26.67;7.87;;;8.40;93.80;;;;;;4997709;28;20227;-90
2022/10/12 07:41:02;;;;;;;19.23;7.57;;;8.40;93.80;;;;;;4997696;28;20180;-90
2022/10/12 07:43:29;;;;;;;33.33;7.83;;;8.50;93.80;;;;;;4997510;28;20197;-91
2022/10/12 07:45:55;;;;;;;22.40;7.73;;;8.50;93.70;;;;;;4997483;28;20272;-90
2022/10/12 07:48:21;;;;;;;19.93;7.10;;;8.50;93.70;;;;;;4997374;28;20176;-90
2022/10/12 07:50:46;;;;;;;23.17;8.17;;;8.50;93.60;;;;;;4997469;28;20182;-90
2022/10/12 07:53:12;;;;;;;19.93;7.83;;;8.60;93.60;;;;;;4997335;28;20216;-90
2022/10/12 07:55:37;;;;;;;20.17;7.90;;;8.70;93.50;;;;;;4997671;28;20177;-90
2022/10/12 07:58:04;;;;;;;28.13;8.20;;;8.70;93.50;;;;;;4997229;28;20698;-90
2022/10/12 08:00:30;;;;;;;23.60;9.00;;;8.80;93.40;;;;;;5014710;28;20170;-90
2022/10/12 08:02:55;;;;;;;23.50;8.20;;;8.90;93.40;;;;;;4997408;28;20181;-90
2022/10/12 08:05:22;;;;;;;25.47;8.00;;;9.00;93.30;;;;;;4997405;28;20684;-91
2022/10/12 08:07:48;;;;;;;18.63;7.20;;;9.00;93.20;;;;;;5014586;28;20173;-91
2022/10/12 08:10:14;;;;;;;25.87;7.50;;;9.00;93.00;;;;;;4997327;28;20209;-91
2022/10/12 08:12:40;;;;;;;21.17;8.00;;;9.10;92.80;;;;;;4997043;28;20205;-90
2022/10/12 08:15:06;;;;;;;23.33;7.40;;;9.10;92.70;;;;;;4997262;28;20204;-90
2022/10/12 08:17:31;;;;;;;27.07;8.00;;;9.30;92.60;;;;;;4996809;28;20185;-91
2022/10/12 08:19:57;;;;;;;23.20;7.07;;;9.30;92.50;;;;;;4996851;28;20188;-91
2022/10/12 08:22:22;;;;;;;23.90;7.20;;;9.30;92.30;;;;;;4996807;28;20196;-91
2022/10/12 08:24:48;;;;;;;20.50;6.50;;;9.50;92.20;;;;;;5014340;28;20272;-91
2022/10/12 08:27:13;;;;;;;20.30;6.23;;;9.60;92.00;;;;;;4997259;28;20672;-90
2022/10/12 08:29:39;;;;;;;25.03;10.03;;;9.70;91.90;;;;;;4996840;28;20164;-91
2022/10/12 08:32:05;;;;;;;23.70;7.07;;;9.80;91.70;;;;;;5014220;28;20197;-91
2022/10/12 08:34:31;;;;;;;21.10;7.17;;;9.80;91.50;;;;;;4996766;28;20684;-91
2022/10/12 08:36:58;;;;;;;17.20;6.10;;;9.90;91.40;;;;;;4996610;28;20204;-90
2022/10/12 08:39:24;;;;;;;20.47;6.13;;;10.00;91.10;;;;;;4996566;28;20562;-91
2022/10/12 08:42:08;;;;;;;20.13;6.73;;;10.10;91.00;;;;;;4996512;28;20208;-90
2022/10/12 08:44:59;;;;;;;19.33;8.00;;;10.20;90.70;;;;;;4996309;28;20282;-90
2022/10/12 08:47:57;;;;;;;22.93;6.40;;;10.30;90.30;;;;;;4996348;28;20575;-90
2022/10/12 08:50:31;;;;;;;20.77;6.70;;;10.40;89.90;;;;;;4996315;28;20166;-90
2022/10/12 08:53:25;;;;;;;19.23;5.67;;;10.40;89.60;;;;;;4996311;28;20192;-90
2022/10/12 08:55:51;;;;;;;19.97;6.57;;;10.60;89.10;;;;;;4987458;28;20181;-90
2022/10/12 08:58:19;;;;;;;22.67;6.23;;;10.70;89.30;;;;;;4996261;28;20264;-90
2022/10/12 09:00:51;;;;;;;15.57;5.40;;;10.80;89.50;;;;;;4996554;28;20644;-91
2022/10/12 09:03:46;;;;;;;27.97;9.63;;;10.90;89.10;;;;;;4996354;28;20228;-90
2022/10/12 09:06:21;;;;;;;23.43;7.50;;;10.90;88.10;;;;;;4995939;28;20203;-90
2022/10/12 09:09:08;;;;;;;20.90;5.93;;;11.10;87.70;;;;;;5013969;28;20177;-90
2022/10/12 09:12:05;;;;;;;21.80;5.67;;;11.20;87.20;;;;;;4996134;28;20174;-90
2022/10/12 09:14:34;;;;;;;21.87;5.07;;;11.30;86.70;;;;;;4994548;28;20197;-90
2022/10/12 09:17:03;;;;;;;13.70;4.83;;;11.40;86.60;;;;;;4996015;28;20247;-91
2022/10/12 09:19:41;;;;;;;30.13;6.00;;;11.60;86.10;;;;;;4996011;28;20177;-89
2022/10/12 09:22:17;;;;;;;14.53;4.37;;;11.60;85.60;;;;;;4996076;28;20272;-89
2022/10/12 09:24:45;;;;;;;16.33;4.40;;;11.70;84.20;;;;;;5013359;28;20201;-88
2022/10/12 09:27:17;;;;;;;19.40;5.23;;;11.80;83.30;;;;;;4995809;28;20296;-88
2022/10/12 09:29:53;;;;;;;14.10;4.40;;;12.00;84.20;;;;;;4995816;28;20261;-87
2022/10/12 09:32:45;;;;;;;15.63;3.97;;;12.10;84.60;;;;;;5013412;28;20158;-89
2022/10/12 09:35:14;;;;;;;15.63;4.07;;;12.30;84.40;;;;;;4995673;28;20220;-88
2022/10/12 09:37:39;;;;;;;13.60;3.90;;;12.30;82.90;;;;;;4995834;28;20227;-89
2022/10/12 09:40:13;;;;;;;23.50;4.00;;;12.40;83.10;;;;;;4995778;28;20260;-89
2022/10/12 09:42:39;;;;;;;22.60;4.30;;;12.40;81.30;;;;;;4995780;28;20176;-89
2022/10/12 09:45:16;;;;;;;17.07;4.30;;;12.50;81.80;;;;;;4995687;28;20287;-89
2022/10/12 09:47:41;;;;;;;17.77;4.10;;;12.60;81.40;;;;;;4995529;28;20296;-89
2022/10/12 09:50:07;;;;;;;26.17;4.90;;;12.70;80.60;;;;;;4995630;28;20260;-88
2022/10/12 09:52:36;;;;;;;17.70;4.23;;;12.80;81.60;;;;;;4995631;28;20174;-88
2022/10/12 09:55:13;;;;;;;18.47;4.70;;;12.90;81.10;;;;;;4995581;28;20232;-90
2022/10/12 09:57:42;;;;;;;22.70;4.00;;;13.00;80.40;;;;;;4995683;28;20260;-88
2022/10/12 10:00:34;;;;;;;15.07;4.27;;;13.10;79.70;;;;;;5013037;28;20193;-89
2022/10/12 10:03:01;;;;;;;19.10;4.77;;;13.10;79.10;;;;;;4995497;28;20666;-90
2022/10/12 10:05:35;;;;;;;13.70;3.77;;;13.30;79.90;;;;;;5013297;28;20659;-89
2022/10/12 10:08:13;;;;;;;13.77;4.00;;;13.40;79.20;;;;;;5013415;28;20550;-89
2022/10/12 10:10:48;;;;;;;20.67;4.50;;;13.30;78.00;;;;;;5013137;28;20188;-90
2022/10/12 10:13:14;;;;;;;12.30;3.67;;;13.50;77.90;;;;;;5012945;28;20275;-89
2022/10/12 10:15:44;;;;;;;17.50;3.70;;;13.50;77.40;;;;;;4995513;28;20205;-90
2022/10/12 10:18:35;;;;;;;14.73;3.73;;;13.70;77.60;;;;;;4995484;28;20173;-90
2022/10/12 10:21:03;;;;;;;17.57;4.73;;;13.80;78.50;;;;;;4995327;28;20170;-90
2022/10/12 10:23:37;;;;;;;20.90;4.87;;;14.00;76.60;;;;;;4995540;28;20212;-90
2022/10/12 10:26:05;;;;;;;20.57;4.83;;;14.00;74.90;;;;;;4997856;28;20208;-90
2022/10/12 10:28:34;;;;;;;18.87;3.67;;;13.90;73.90;;;;;;4999222;28;20196;-90
2022/10/12 10:31:06;;;;;;;12.80;3.93;;;14.30;75.40;;;;;;4998985;28;20219;-93
2022/10/12 10:33:35;;;;;;;17.97;3.80;;;14.30;74.70;;;;;;5056130;22;20208;-88
2022/10/12 10:36:07;;;;;;;10.37;2.93;;;14.30;72.90;;;;;;5036030;28;20660;-89
2022/10/12 10:39:07;;;;;;;13.97;3.57;;;14.40;72.90;;;;;;5034783;28;20246;-89
2022/10/12 10:41:41;;;;;;;17.40;3.47;;;14.40;71.80;;;;;;5034404;28;20188;-89
2022/10/12 10:44:22;;;;;;;20.63;4.03;;;14.50;72.40;;;;;;5034721;28;20287;-89
2022/10/12 10:46:49;;;;;;;19.13;4.33;;;14.70;72.70;;;;;;5034687;28;20220;-89
2022/10/12 10:49:33;;;;;;;14.13;3.63;;;14.80;71.30;;;;;;5034712;28;20169;-89
2022/10/12 10:52:00;;;;;;;16.87;3.73;;;14.80;71.00;;;;;;5035547;28;20651;-89
2022/10/12 10:54:29;;;;;;;13.30;3.67;;;14.80;69.00;;;;;;5034851;28;20196;-89
2022/10/12 10:56:58;;;;;;;13.70;3.25;;;14.80;67.90;;;;;;5035290;28;20215;-89
2022/10/12 10:59:35;;;;;;;19.80;4.43;;;14.90;68.50;;;;;;5034925;28;20554;-89
2022/10/12 11:02:10;;;;;;;16.25;3.40;;;15.10;68.80;;;;;;5035109;28;20290;-89
2022/10/12 11:04:41;;;;;;;13.68;3.15;;;15.00;67.70;;;;;;5034320;28;20203;-89
2022/10/12 11:07:17;;;;;;;13.60;3.05;;;15.00;67.50;;;;;;5034329;28;20204;-89
2022/10/12 11:09:46;;;;;;;16.00;2.72;;;15.00;67.00;;;;;;5034261;28;20196;-88
2022/10/12 11:12:20;;;;;;;11.95;3.17;;;15.20;67.70;;;;;;5034188;28;20168;-89
2022/10/12 11:14:52;;;;;;;14.57;2.90;;;15.20;66.10;;;;;;5034199;28;20602;-89
2022/10/12 11:17:29;;;;;;;8.63;2.70;;;15.20;66.60;;;;;;5034126;28;20180;-89
2022/10/12 11:20:20;;;;;;;13.98;3.55;;;15.30;66.10;;;;;;5035015;28;20172;-89
2022/10/12 11:22:48;;;;;;;11.35;2.53;;;15.40;66.60;;;;;;5034576;28;20300;-89
2022/10/12 11:25:24;;;;;;;12.85;2.80;;;15.30;65.40;;;;;;5034671;28;20231;-89
2022/10/12 11:27:50;;;;;;;10.30;2.47;;;15.30;64.60;;;;;;5034792;28;20219;-89
2022/10/12 11:30:19;;;;;;;15.85;3.00;;;15.50;65.00;;;;;;5033969;28;20183;-89
2022/10/12 11:32:49;;;;;;;14.57;2.78;;;15.50;65.00;;;;;;5034660;28;20319;-89
2022/10/12 11:35:27;;;;;;;10.05;2.47;;;15.50;64.70;;;;;;5033958;28;20295;-89
2022/10/12 11:38:06;;;;;;;11.95;2.72;;;15.50;63.90;;;;;;5034538;28;20174;-89
2022/10/12 11:40:44;;;;;;;10.05;2.50;;;15.50;63.90;;;;;;5034612;28;20502;-89
2022/10/12 11:43:15;;;;;;;15.35;2.83;;;15.50;63.80;;;;;;5034406;28;20212;-89
2022/10/12 11:45:46;;;;;;;14.20;3.20;;;15.70;63.50;;;;;;5033657;28;20198;-89
2022/10/12 11:48:30;;;;;;;7.18;2.33;;;15.80;65.20;;;;;;5033645;28;20597;-88
2022/10/12 11:50:57;;;;;;;12.73;2.70;;;15.50;64.40;;;;;;5034170;28;20161;-89
2022/10/12 11:53:43;;;;;;;12.55;3.40;;;15.50;63.80;;;;;;5033473;28;20260;-89
2022/10/12 11:56:30;;;;;;;14.50;2.45;;;15.80;63.60;;;;;;5033002;28;20192;-89
2022/10/12 11:59:27;;;;;;;15.90;3.22;;;15.90;63.00;;;;;;5033333;28;20172;-89
2022/10/12 12:02:09;;;;;;;10.18;3.08;;;15.90;62.80;;;;;;5033598;28;20200;-89
2022/10/12 12:04:40;;;;;;;9.95;2.33;;;15.80;62.60;;;;;;5033208;28;20201;-89
2022/10/12 12:07:45;;;;;;;12.20;3.17;;;15.80;61.50;;;;;;5033181;28;20201;-89
2022/10/12 12:10:44;;;;;;;10.48;2.95;;;15.90;63.10;;;;;;5033440;28;20175;-89
2022/10/12 12:13:13;;;;;;;12.55;2.13;;;16.10;62.10;;;;;;5034174;28;20165;-89
2022/10/12 12:15:45;;;;;;;11.30;2.75;;;16.10;61.10;;;;;;5033045;28;20208;-89
2022/10/12 12:18:13;;;;;;;6.85;2.38;;;16.10;62.00;;;;;;5033623;28;20571;-89
2022/10/12 12:20:42;;;;;;;10.48;2.72;;;16.20;60.30;;;;;;5032943;28;20176;-89
2022/10/12 12:23:23;;;;;;;9.77;2.33;;;16.10;60.70;;;;;;5033222;28;20173;-89
2022/10/12 12:26:08;;;;;;;7.68;2.03;;;15.90;60.70;;;;;;5033740;28;20192;-89
2022/10/12 12:28:39;;;;;;;9.95;3.03;;;16.00;60.50;;;;;;5033192;28;20504;-88
2022/10/12 12:31:12;;;;;;;7.93;2.30;;;15.80;59.60;;;;;;5033686;28;20161;-88
2022/10/12 12:33:41;;;;;;;10.60;2.40;;;15.90;59.80;;;;;;5033110;28;20232;-88
2022/10/12 12:36:12;;;;;;;9.13;2.50;;;15.90;60.10;;;;;;5032725;28;20187;-89
2022/10/12 12:38:45;;;;;;;14.95;2.60;;;16.20;60.30;;;;;;5033105;28;20199;-89
2022/10/12 12:41:14;;;;;;;11.07;2.80;;;16.20;59.00;;;;;;5033151;28;20195;-89
2022/10/12 12:43:54;;;;;;;8.43;2.00;;;16.60;60.10;;;;;;5032855;28;20638;-89
2022/10/12 12:46:21;;;;;;;8.93;2.03;;;16.50;59.70;;;;;;5032531;28;20203;-89
2022/10/12 12:48:46;;;;;;;9.55;2.00;;;16.30;58.90;;;;;;5031834;28;20172;-89
2022/10/12 12:51:22;;;;;;;11.77;2.42;;;16.40;59.20;;;;;;5032561;28;20176;-89
2022/10/12 12:54:14;;;;;;;9.27;2.00;;;16.60;59.20;;;;;;5032456;28;20249;-89
2022/10/12 12:57:04;;;;;;;8.10;2.63;;;16.50;57.10;;;;;;5032383;28;20160;-89
2022/10/12 12:59:45;;;;;;;5.32;1.95;;;16.30;58.20;;;;;;5033532;28;20161;-88
2022/10/12 13:02:36;;;;;;;10.45;2.20;;;16.30;59.00;;;;;;5032206;28;20160;-89